createdAt,value
2022-11-22T00:00:00.000Z,10.32
2022-11-22T00:15:00.000Z,7.82
2022-11-22T00:30:00.000Z,7.04
2022-11-22T00:45:00.000Z,7.07
2022-11-22T01:00:00.000Z,7.19
2022-11-22T01:15:00.000Z,7.19
2022-11-22T01:30:00.000Z,6.95
2022-11-22T01:45:00.000Z,6.96
2022-11-22T02:00:00.000Z,5.98
2022-11-22T02:15:00.000Z,7.27
2022-11-22T02:30:00.000Z,8.04
2022-11-22T02:45:00.000Z,7.53
2022-11-22T03:15:00.000Z,8
2022-11-22T03:15:00.000Z,7.94
2022-11-22T03:30:00.000Z,8.22
2022-11-22T03:45:00.000Z,11.92
2022-11-22T04:00:00.000Z,8.97
2022-11-22T04:15:00.000Z,8.34
2022-11-22T04:30:00.000Z,9.92
2022-11-22T04:45:00.000Z,11.47
2022-11-22T05:00:00.000Z,12.29
2022-11-22T05:15:00.000Z,13.29
2022-11-22T05:30:00.000Z,13.53
2022-11-22T05:45:00.000Z,13.87
2022-11-22T06:00:00.000Z,14.55
2022-11-22T06:15:00.000Z,25.04
2022-11-22T06:30:00.000Z,19.87
2022-11-22T06:45:00.000Z,19.65
2022-11-22T07:00:00.000Z,21.81
2022-11-22T07:15:00.000Z,16.72
2022-11-22T07:30:00.000Z,18.22
2022-11-22T07:45:00.000Z,15.62
2022-11-22T08:00:00.000Z,14.33
2022-11-22T08:15:00.000Z,14.94
2022-11-22T08:30:00.000Z,15.6
2022-11-22T08:45:00.000Z,14.58
2022-11-22T09:00:00.000Z,16.04
2022-11-22T09:15:00.000Z,19.04
2022-11-22T09:30:00.000Z,14.2
2022-11-22T09:45:00.000Z,12.76
2022-11-22T10:00:00.000Z,19.56
2022-11-22T10:15:00.000Z,18.96
2022-11-22T10:30:00.000Z,19.51
2022-11-22T10:45:00.000Z,15.94
2022-11-22T11:00:00.000Z,17.11
2022-11-22T11:15:00.000Z,22.82
2022-11-22T11:30:00.000Z,25.72
2022-11-22T11:45:00.000Z,17.95
2022-11-22T12:15:00.000Z,10
2022-11-22T12:15:00.000Z,11.64
2022-11-22T12:30:00.000Z,9.82
2022-11-22T12:45:00.000Z,7.51
2022-11-22T13:00:00.000Z,6.32
2022-11-22T13:15:00.000Z,9.15
2022-11-22T13:45:00.000Z,7
2022-11-22T13:45:00.000Z,8.2
2022-11-22T14:00:00.000Z,9.64
2022-11-22T14:15:00.000Z,9.53
2022-11-22T14:30:00.000Z,8.92
2022-11-22T14:45:00.000Z,27.6
2022-11-22T15:45:00.000Z,20.27
2022-11-22T16:00:00.000Z,10.78
2022-11-22T16:15:00.000Z,11.87
2022-11-22T16:30:00.000Z,12.65
2022-11-22T16:45:00.000Z,12.85
2022-11-22T17:00:00.000Z,17.74
2022-11-22T17:15:00.000Z,14.6
2022-11-22T17:30:00.000Z,15.41
2022-11-22T17:45:00.000Z,10.67
2022-11-22T18:00:00.000Z,16.21
2022-11-22T18:15:00.000Z,15.61
2022-11-22T18:30:00.000Z,15.07
2022-11-22T18:45:00.000Z,11.48
2022-11-22T19:00:00.000Z,11.06
2022-11-22T19:15:00.000Z,13.8
2022-11-22T19:30:00.000Z,14.18
2022-11-22T19:45:00.000Z,13.58
2022-11-22T20:00:00.000Z,13.78
2022-11-22T20:15:00.000Z,11.74
2022-11-22T20:30:00.000Z,10.28
2022-11-22T20:45:00.000Z,10.56
2022-11-22T21:00:00.000Z,12.53
2022-11-22T21:15:00.000Z,13.31
2022-11-22T21:30:00.000Z,10.87
2022-11-22T21:45:00.000Z,10.05
2022-11-22T22:00:00.000Z,10.07
2022-11-22T22:15:00.000Z,9.13
2022-11-22T22:30:00.000Z,8.02
2022-11-22T22:45:00.000Z,7.6
2022-11-22T23:00:00.000Z,7.39
2022-11-22T23:15:00.000Z,7.4
2022-11-22T23:30:00.000Z,7.54
2022-11-22T23:45:00.000Z,7.15
